sensor_id;sensor_type;location;lat;lon;timestamp;pressure;altitude;pressure_sealevel;temperature;humidity
40920;BME280;26652;50.280;19.026;2023-12-07T00:00:36;147911.13;;;0.21;85.12
40920;BME280;26652;50.280;19.026;2023-12-07T00:02:56;147936.81;;;0.31;84.64
40920;BME280;26652;50.280;19.026;2023-12-07T00:04:57;147929.47;;;0.28;85.31
40920;BME280;26652;50.280;19.026;2023-12-07T00:06:58;147906.25;;;0.19;85.39
40920;BME280;26652;50.280;19.026;2023-12-07T00:08:58;147864.66;;;0.02;86.13
40920;BME280;26652;50.280;19.026;2023-12-07T00:11:01;147875.69;;;0.06;86.44
40920;BME280;26652;50.280;19.026;2023-12-07T00:13:02;147842.72;;;-0.08;87.17
40920;BME280;26652;50.280;19.026;2023-12-07T00:15:03;147879.34;;;0.08;87.20
40920;BME280;26652;50.280;19.026;2023-12-07T00:17:04;147839.03;;;-0.09;88.08
40920;BME280;26652;50.280;19.026;2023-12-07T00:19:04;147829.25;;;-0.13;88.01
40920;BME280;26652;50.280;19.026;2023-12-07T00:21:08;147868.34;;;0.03;87.57
40920;BME280;26652;50.280;19.026;2023-12-07T00:23:09;147896.47;;;0.15;86.57
40920;BME280;26652;50.280;19.026;2023-12-07T00:25:10;147879.34;;;0.08;87.02
40920;BME280;26652;50.280;19.026;2023-12-07T00:27:10;147918.47;;;0.24;86.01
40920;BME280;26652;50.280;19.026;2023-12-07T00:29:11;147906.25;;;0.19;85.79
40920;BME280;26652;50.280;19.026;2023-12-07T00:31:11;147885.47;;;0.10;86.17
40920;BME280;26652;50.280;19.026;2023-12-07T00:33:13;147884.22;;;0.10;87.01
40920;BME280;26652;50.280;19.026;2023-12-07T00:35:13;147892.81;;;0.13;86.87
40920;BME280;26652;50.280;19.026;2023-12-07T00:37:15;147942.94;;;0.34;86.15
40920;BME280;26652;50.280;19.026;2023-12-07T00:39:15;147909.91;;;0.20;86.49
40920;BME280;26652;50.280;19.026;2023-12-07T00:41:17;147930.72;;;0.29;86.21
40920;BME280;26652;50.280;19.026;2023-12-07T00:43:18;147962.50;;;0.42;85.60
40920;BME280;26652;50.280;19.026;2023-12-07T00:45:18;147952.72;;;0.38;86.26
40920;BME280;26652;50.280;19.026;2023-12-07T00:47:20;147978.41;;;0.49;85.63
40920;BME280;26652;50.280;19.026;2023-12-07T00:49:20;147994.31;;;0.55;85.12
40920;BME280;26652;50.280;19.026;2023-12-07T00:51:21;147977.19;;;0.48;85.20
40920;BME280;26652;50.280;19.026;2023-12-07T00:53:21;148021.22;;;0.67;85.29
40920;BME280;26652;50.280;19.026;2023-12-07T00:55:22;147955.19;;;0.39;84.72
40920;BME280;26652;50.280;19.026;2023-12-07T00:57:23;147953.94;;;0.39;86.04
40920;BME280;26652;50.280;19.026;2023-12-07T00:59:24;147966.19;;;0.44;86.96
40920;BME280;26652;50.280;19.026;2023-12-07T01:01:25;147968.63;;;0.45;86.09
40920;BME280;26652;50.280;19.026;2023-12-07T01:03:25;147940.50;;;0.33;86.16
40920;BME280;26652;50.280;19.026;2023-12-07T01:05:26;147952.72;;;0.38;86.85
40920;BME280;26652;50.280;19.026;2023-12-07T01:07:27;147985.75;;;0.52;86.17
40920;BME280;26652;50.280;19.026;2023-12-07T01:09:27;147964.97;;;0.43;85.11
40920;BME280;26652;50.280;19.026;2023-12-07T01:11:28;147988.19;;;0.53;85.50
40920;BME280;26652;50.280;19.026;2023-12-07T01:13:29;147998.00;;;0.57;85.10
40920;BME280;26652;50.280;19.026;2023-12-07T01:15:29;148015.13;;;0.64;84.60
40920;BME280;26652;50.280;19.026;2023-12-07T01:17:30;148042.03;;;0.75;84.72
40920;BME280;26652;50.280;19.026;2023-12-07T01:19:30;148021.22;;;0.67;84.68
40920;BME280;26652;50.280;19.026;2023-12-07T01:21:31;148024.91;;;0.68;84.41
40920;BME280;26652;50.280;19.026;2023-12-07T01:23:32;148035.91;;;0.73;84.04
40920;BME280;26652;50.280;19.026;2023-12-07T01:25:32;147993.09;;;0.55;85.63
40920;BME280;26652;50.280;19.026;2023-12-07T01:27:33;147978.41;;;0.49;86.86
40920;BME280;26652;50.280;19.026;2023-12-07T01:29:34;147927.03;;;0.27;88.34
40920;BME280;26652;50.280;19.026;2023-12-07T01:31:35;147894.03;;;0.14;88.85
40920;BME280;26652;50.280;19.026;2023-12-07T01:33:35;147964.97;;;0.43;87.81
40920;BME280;26652;50.280;19.026;2023-12-07T01:35:36;147930.72;;;0.29;87.75
40920;BME280;26652;50.280;19.026;2023-12-07T01:37:37;147929.47;;;0.28;87.34
40920;BME280;26652;50.280;19.026;2023-12-07T01:39:37;147916.03;;;0.23;87.82
40920;BME280;26652;50.280;19.026;2023-12-07T01:41:39;147880.56;;;0.08;89.30
40920;BME280;26652;50.280;19.026;2023-12-07T01:43:47;147892.81;;;0.13;90.25
40920;BME280;26652;50.280;19.026;2023-12-07T01:45:49;147918.47;;;0.24;90.03
40920;BME280;26652;50.280;19.026;2023-12-07T01:47:53;147931.94;;;0.29;89.47
40920;BME280;26652;50.280;19.026;2023-12-07T01:49:55;147950.28;;;0.37;88.95
40920;BME280;26652;50.280;19.026;2023-12-07T01:51:56;147945.38;;;0.35;88.91
40920;BME280;26652;50.280;19.026;2023-12-07T01:53:57;147972.28;;;0.46;88.84
40920;BME280;26652;50.280;19.026;2023-12-07T01:55:58;147949.06;;;0.37;88.75
40920;BME280;26652;50.280;19.026;2023-12-07T01:57:59;147949.06;;;0.37;88.35
40920;BME280;26652;50.280;19.026;2023-12-07T02:00:00;147930.72;;;0.29;88.97
40920;BME280;26652;50.280;19.026;2023-12-07T02:02:00;147935.59;;;0.31;88.65
40920;BME280;26652;50.280;19.026;2023-12-07T02:04:01;147956.41;;;0.40;88.86
40920;BME280;26652;50.280;19.026;2023-12-07T02:06:03;147980.84;;;0.50;88.18
40920;BME280;26652;50.280;19.026;2023-12-07T02:08:03;147952.72;;;0.38;88.56
40920;BME280;26652;50.280;19.026;2023-12-07T02:10:05;147953.94;;;0.39;89.08
40920;BME280;26652;50.280;19.026;2023-12-07T02:12:06;147898.91;;;0.16;89.96
40920;BME280;26652;50.280;19.026;2023-12-07T02:14:07;147907.47;;;0.19;89.72
40920;BME280;26652;50.280;19.026;2023-12-07T02:16:13;147940.50;;;0.33;90.13
40920;BME280;26652;50.280;19.026;2023-12-07T02:18:24;147922.16;;;0.25;90.44
40920;BME280;26652;50.280;19.026;2023-12-07T02:20:43;147872.00;;;0.05;91.11
40920;BME280;26652;50.280;19.026;2023-12-07T02:22:49;147865.88;;;0.02;91.64
40920;BME280;26652;50.280;19.026;2023-12-07T02:25:05;147919.72;;;0.24;91.32
40920;BME280;26652;50.280;19.026;2023-12-07T02:27:09;147884.22;;;0.10;93.72
40920;BME280;26652;50.280;19.026;2023-12-07T02:29:09;147834.16;;;-0.11;95.00
40920;BME280;26652;50.280;19.026;2023-12-07T02:31:10;147814.59;;;-0.19;94.07
40920;BME280;26652;50.280;19.026;2023-12-07T02:33:11;147875.69;;;0.06;94.23
40920;BME280;26652;50.280;19.026;2023-12-07T02:35:12;147931.94;;;0.29;93.38
40920;BME280;26652;50.280;19.026;2023-12-07T02:37:13;147946.63;;;0.36;92.23
40920;BME280;26652;50.280;19.026;2023-12-07T02:39:15;147950.28;;;0.37;91.43
40920;BME280;26652;50.280;19.026;2023-12-07T02:41:17;147929.47;;;0.28;92.28
40920;BME280;26652;50.280;19.026;2023-12-07T02:43:18;147913.59;;;0.22;92.00
40920;BME280;26652;50.280;19.026;2023-12-07T02:45:20;147890.34;;;0.12;91.73
40920;BME280;26652;50.280;19.026;2023-12-07T02:47:21;147879.34;;;0.08;92.52
40920;BME280;26652;50.280;19.026;2023-12-07T02:49:21;147867.13;;;0.03;93.23
40920;BME280;26652;50.280;19.026;2023-12-07T02:51:22;147925.81;;;0.27;92.83
40920;BME280;26652;50.280;19.026;2023-12-07T02:53:23;147905.03;;;0.18;92.26
40920;BME280;26652;50.280;19.026;2023-12-07T02:55:23;147905.03;;;0.18;91.66
40920;BME280;26652;50.280;19.026;2023-12-07T02:57:24;147949.06;;;0.37;92.33
40920;BME280;26652;50.280;19.026;2023-12-07T02:59:25;147950.28;;;0.37;91.75
40920;BME280;26652;50.280;19.026;2023-12-07T03:01:25;147995.53;;;0.56;91.43
40920;BME280;26652;50.280;19.026;2023-12-07T03:03:26;147938.03;;;0.32;91.37
40920;BME280;26652;50.280;19.026;2023-12-07T03:05:27;147964.97;;;0.43;91.42
40920;BME280;26652;50.280;19.026;2023-12-07T03:07:27;147990.66;;;0.54;90.94
40920;BME280;26652;50.280;19.026;2023-12-07T03:09:28;147968.63;;;0.45;90.49
40920;BME280;26652;50.280;19.026;2023-12-07T03:11:29;147989.41;;;0.53;91.08
40920;BME280;26652;50.280;19.026;2023-12-07T03:13:29;147983.31;;;0.51;90.67
40920;BME280;26652;50.280;19.026;2023-12-07T03:15:30;147971.06;;;0.46;90.13
40920;BME280;26652;50.280;19.026;2023-12-07T03:17:30;147944.16;;;0.35;90.46
40920;BME280;26652;50.280;19.026;2023-12-07T03:19:31;147939.28;;;0.32;90.46
40920;BME280;26652;50.280;19.026;2023-12-07T03:21:32;147977.19;;;0.48;90.72
40920;BME280;26652;50.280;19.026;2023-12-07T03:23:33;147953.94;;;0.39;90.34
40920;BME280;26652;50.280;19.026;2023-12-07T03:25:33;147975.97;;;0.48;90.49
40920;BME280;26652;50.280;19.026;2023-12-07T03:27:34;147994.31;;;0.55;90.41
40920;BME280;26652;50.280;19.026;2023-12-07T03:29:34;147941.72;;;0.33;89.35
40920;BME280;26652;50.280;19.026;2023-12-07T03:31:35;147909.91;;;0.20;91.05
40920;BME280;26652;50.280;19.026;2023-12-07T03:33:36;147922.16;;;0.25;91.06
40920;BME280;26652;50.280;19.026;2023-12-07T03:35:38;147896.47;;;0.15;91.79
40920;BME280;26652;50.280;19.026;2023-12-07T03:37:39;147941.72;;;0.33;91.53
40920;BME280;26652;50.280;19.026;2023-12-07T03:39:40;147918.47;;;0.24;91.19
40920;BME280;26652;50.280;19.026;2023-12-07T03:41:41;147903.81;;;0.18;91.10
40920;BME280;26652;50.280;19.026;2023-12-07T03:43:41;147898.91;;;0.16;91.39
40920;BME280;26652;50.280;19.026;2023-12-07T03:45:42;147901.34;;;0.17;91.95
40920;BME280;26652;50.280;19.026;2023-12-07T03:47:43;147912.38;;;0.21;91.90
40920;BME280;26652;50.280;19.026;2023-12-07T03:49:44;147906.25;;;0.19;90.62
40920;BME280;26652;50.280;19.026;2023-12-07T03:51:45;147938.03;;;0.32;91.10
40920;BME280;26652;50.280;19.026;2023-12-07T03:53:46;147900.13;;;0.16;91.36
40920;BME280;26652;50.280;19.026;2023-12-07T03:55:47;147939.28;;;0.32;91.13
40920;BME280;26652;50.280;19.026;2023-12-07T03:57:48;147891.56;;;0.13;90.89
40920;BME280;26652;50.280;19.026;2023-12-07T03:59:49;147869.56;;;0.04;91.44
40920;BME280;26652;50.280;19.026;2023-12-07T04:01:49;147887.91;;;0.11;91.69
40920;BME280;26652;50.280;19.026;2023-12-07T04:03:54;147885.47;;;0.10;92.21
40920;BME280;26652;50.280;19.026;2023-12-07T04:05:58;147891.56;;;0.13;91.86
40920;BME280;26652;50.280;19.026;2023-12-07T04:07:58;147911.13;;;0.21;91.81
40920;BME280;26652;50.280;19.026;2023-12-07T04:09:59;147908.69;;;0.20;90.79
40920;BME280;26652;50.280;19.026;2023-12-07T04:12:00;147930.72;;;0.29;91.45
40920;BME280;26652;50.280;19.026;2023-12-07T04:14:00;147884.22;;;0.10;90.74
40920;BME280;26652;50.280;19.026;2023-12-07T04:16:01;147911.13;;;0.21;91.09
40920;BME280;26652;50.280;19.026;2023-12-07T04:18:03;147945.38;;;0.35;90.77
40920;BME280;26652;50.280;19.026;2023-12-07T04:20:04;147931.94;;;0.29;90.81
40920;BME280;26652;50.280;19.026;2023-12-07T04:22:05;147971.06;;;0.46;90.51
40920;BME280;26652;50.280;19.026;2023-12-07T04:24:06;147944.16;;;0.35;90.40
40920;BME280;26652;50.280;19.026;2023-12-07T04:26:06;147949.06;;;0.37;90.06
40920;BME280;26652;50.280;19.026;2023-12-07T04:28:07;147941.72;;;0.33;89.32
40920;BME280;26652;50.280;19.026;2023-12-07T04:30:08;147966.19;;;0.44;89.84
40920;BME280;26652;50.280;19.026;2023-12-07T04:32:09;147971.06;;;0.46;90.11
40920;BME280;26652;50.280;19.026;2023-12-07T04:34:09;147956.41;;;0.40;90.48
40920;BME280;26652;50.280;19.026;2023-12-07T04:36:10;147994.31;;;0.55;89.74
40920;BME280;26652;50.280;19.026;2023-12-07T04:38:11;148002.88;;;0.59;89.99
40920;BME280;26652;50.280;19.026;2023-12-07T04:40:11;147969.84;;;0.45;89.40
40920;BME280;26652;50.280;19.026;2023-12-07T04:42:12;147956.41;;;0.40;89.06
40920;BME280;26652;50.280;19.026;2023-12-07T04:44:13;147973.53;;;0.47;89.70
40920;BME280;26652;50.280;19.026;2023-12-07T04:46:13;147958.84;;;0.41;89.32
40920;BME280;26652;50.280;19.026;2023-12-07T04:48:14;147956.41;;;0.40;89.61
40920;BME280;26652;50.280;19.026;2023-12-07T04:50:15;147969.84;;;0.45;89.60
40920;BME280;26652;50.280;19.026;2023-12-07T04:52:15;147964.97;;;0.43;89.37
40920;BME280;26652;50.280;19.026;2023-12-07T04:54:16;147972.28;;;0.46;90.11
40920;BME280;26652;50.280;19.026;2023-12-07T04:56:17;147947.84;;;0.36;89.63
40920;BME280;26652;50.280;19.026;2023-12-07T04:58:17;147902.56;;;0.17;89.47
40920;BME280;26652;50.280;19.026;2023-12-07T05:00:18;147919.72;;;0.24;90.80
40920;BME280;26652;50.280;19.026;2023-12-07T05:02:19;147909.91;;;0.20;90.74
40920;BME280;26652;50.280;19.026;2023-12-07T05:04:19;147924.59;;;0.26;91.30
40920;BME280;26652;50.280;19.026;2023-12-07T05:06:20;147929.47;;;0.28;91.25
40920;BME280;26652;50.280;19.026;2023-12-07T05:08:21;147939.28;;;0.32;90.82
40920;BME280;26652;50.280;19.026;2023-12-07T05:10:21;147939.28;;;0.32;90.70
40920;BME280;26652;50.280;19.026;2023-12-07T05:12:22;147957.63;;;0.40;90.50
40920;BME280;26652;50.280;19.026;2023-12-07T05:14:22;147945.38;;;0.35;89.78
40920;BME280;26652;50.280;19.026;2023-12-07T05:16:23;147917.25;;;0.23;91.12
40920;BME280;26652;50.280;19.026;2023-12-07T05:18:24;147912.38;;;0.21;92.27
40920;BME280;26652;50.280;19.026;2023-12-07T05:20:25;147907.47;;;0.19;91.94
40920;BME280;26652;50.280;19.026;2023-12-07T05:22:27;147883.00;;;0.09;93.02
40920;BME280;26652;50.280;19.026;2023-12-07T05:24:28;147883.00;;;0.09;94.58
40920;BME280;26652;50.280;19.026;2023-12-07T05:26:28;147863.44;;;0.01;95.34
40920;BME280;26652;50.280;19.026;2023-12-07T05:28:30;147832.94;;;-0.12;95.65
40920;BME280;26652;50.280;19.026;2023-12-07T05:30:30;147847.59;;;-0.06;95.61
40920;BME280;26652;50.280;19.026;2023-12-07T05:32:31;147884.22;;;0.10;95.13
40920;BME280;26652;50.280;19.026;2023-12-07T05:34:32;147890.34;;;0.12;94.98
40920;BME280;26652;50.280;19.026;2023-12-07T05:36:34;147908.69;;;0.20;94.19
40920;BME280;26652;50.280;19.026;2023-12-07T05:38:34;147912.38;;;0.21;94.03
40920;BME280;26652;50.280;19.026;2023-12-07T05:40:35;147945.38;;;0.35;93.12
40920;BME280;26652;50.280;19.026;2023-12-07T05:42:36;147946.63;;;0.36;93.35
40920;BME280;26652;50.280;19.026;2023-12-07T05:44:36;147916.03;;;0.23;93.15
40920;BME280;26652;50.280;19.026;2023-12-07T05:46:37;147962.50;;;0.42;92.91
40920;BME280;26652;50.280;19.026;2023-12-07T05:48:39;147960.06;;;0.41;92.08
40920;BME280;26652;50.280;19.026;2023-12-07T05:50:39;147950.28;;;0.37;92.03
40920;BME280;26652;50.280;19.026;2023-12-07T05:52:41;147972.28;;;0.46;91.72
40920;BME280;26652;50.280;19.026;2023-12-07T05:54:42;147962.50;;;0.42;92.83
40920;BME280;26652;50.280;19.026;2023-12-07T05:56:43;147941.72;;;0.33;92.57
40920;BME280;26652;50.280;19.026;2023-12-07T05:58:45;147950.28;;;0.37;93.27
40920;BME280;26652;50.280;19.026;2023-12-07T06:00:46;147971.06;;;0.46;93.38
40920;BME280;26652;50.280;19.026;2023-12-07T06:02:47;147942.94;;;0.34;93.29
40920;BME280;26652;50.280;19.026;2023-12-07T06:04:48;147931.94;;;0.29;92.81
40920;BME280;26652;50.280;19.026;2023-12-07T06:06:48;147938.03;;;0.32;94.03
40920;BME280;26652;50.280;19.026;2023-12-07T06:08:49;147973.53;;;0.47;93.67
40920;BME280;26652;50.280;19.026;2023-12-07T06:10:50;147938.03;;;0.32;93.27
40920;BME280;26652;50.280;19.026;2023-12-07T06:12:51;147923.38;;;0.26;93.31
40920;BME280;26652;50.280;19.026;2023-12-07T06:14:51;147939.28;;;0.32;92.91
40920;BME280;26652;50.280;19.026;2023-12-07T06:16:52;147946.63;;;0.36;93.38
40920;BME280;26652;50.280;19.026;2023-12-07T06:18:52;147971.06;;;0.46;93.69
40920;BME280;26652;50.280;19.026;2023-12-07T06:20:53;147971.06;;;0.46;93.44
40920;BME280;26652;50.280;19.026;2023-12-07T06:22:54;147939.28;;;0.32;93.67
40920;BME280;26652;50.280;19.026;2023-12-07T06:24:55;147952.72;;;0.38;93.67
40920;BME280;26652;50.280;19.026;2023-12-07T06:26:55;147936.81;;;0.31;93.96
40920;BME280;26652;50.280;19.026;2023-12-07T06:28:56;147966.19;;;0.44;94.12
40920;BME280;26652;50.280;19.026;2023-12-07T06:30:57;147966.19;;;0.44;94.35
40920;BME280;26652;50.280;19.026;2023-12-07T06:32:58;147951.50;;;0.38;95.01
40920;BME280;26652;50.280;19.026;2023-12-07T06:34:58;147907.47;;;0.19;95.43
40920;BME280;26652;50.280;19.026;2023-12-07T06:36:59;147923.38;;;0.26;95.59
40920;BME280;26652;50.280;19.026;2023-12-07T06:38:59;147947.84;;;0.36;94.99
40920;BME280;26652;50.280;19.026;2023-12-07T06:41:00;147958.84;;;0.41;94.03
40920;BME280;26652;50.280;19.026;2023-12-07T06:43:01;147971.06;;;0.46;93.54
40920;BME280;26652;50.280;19.026;2023-12-07T06:45:02;147952.72;;;0.38;93.91
40920;BME280;26652;50.280;19.026;2023-12-07T06:47:03;147947.84;;;0.36;93.85
40920;BME280;26652;50.280;19.026;2023-12-07T06:49:05;147955.19;;;0.39;93.99
40920;BME280;26652;50.280;19.026;2023-12-07T06:51:05;147993.09;;;0.55;93.37
40920;BME280;26652;50.280;19.026;2023-12-07T06:53:06;147941.72;;;0.33;93.17
40920;BME280;26652;50.280;19.026;2023-12-07T06:55:07;147946.63;;;0.36;93.18
40920;BME280;26652;50.280;19.026;2023-12-07T06:57:11;147950.28;;;0.37;93.64
40920;BME280;26652;50.280;19.026;2023-12-07T06:59:11;147953.94;;;0.39;93.66
40920;BME280;26652;50.280;19.026;2023-12-07T07:01:13;147971.06;;;0.46;93.70
40920;BME280;26652;50.280;19.026;2023-12-07T07:03:14;147929.47;;;0.28;94.07
40920;BME280;26652;50.280;19.026;2023-12-07T07:05:14;147972.28;;;0.46;94.75
40920;BME280;26652;50.280;19.026;2023-12-07T07:07:15;147963.72;;;0.43;93.67
40920;BME280;26652;50.280;19.026;2023-12-07T07:09:16;147966.19;;;0.44;93.69
40920;BME280;26652;50.280;19.026;2023-12-07T07:11:17;147966.19;;;0.44;93.03
40920;BME280;26652;50.280;19.026;2023-12-07T07:13:17;147946.63;;;0.36;93.17
40920;BME280;26652;50.280;19.026;2023-12-07T07:15:20;147971.06;;;0.46;93.35
40920;BME280;26652;50.280;19.026;2023-12-07T07:17:21;147988.19;;;0.53;93.23
40920;BME280;26652;50.280;19.026;2023-12-07T07:19:22;147939.28;;;0.32;94.07
40920;BME280;26652;50.280;19.026;2023-12-07T07:21:22;147920.94;;;0.25;95.55
40920;BME280;26652;50.280;19.026;2023-12-07T07:23:23;147924.59;;;0.26;94.71
40920;BME280;26652;50.280;19.026;2023-12-07T07:25:24;147962.50;;;0.42;94.15
40920;BME280;26652;50.280;19.026;2023-12-07T07:27:24;148002.88;;;0.59;94.26
40920;BME280;26652;50.280;19.026;2023-12-07T07:29:25;148038.34;;;0.74;93.00
40920;BME280;26652;50.280;19.026;2023-12-07T07:31:26;148031.03;;;0.71;93.50
40920;BME280;26652;50.280;19.026;2023-12-07T07:33:26;148071.41;;;0.87;92.62
40920;BME280;26652;50.280;19.026;2023-12-07T07:35:27;148084.84;;;0.93;91.92
40920;BME280;26652;50.280;19.026;2023-12-07T07:37:28;148056.72;;;0.81;91.43
40920;BME280;26652;50.280;19.026;2023-12-07T07:39:29;148046.91;;;0.77;91.36
40920;BME280;26652;50.280;19.026;2023-12-07T07:41:29;148098.31;;;0.98;90.82
40920;BME280;26652;50.280;19.026;2023-12-07T07:43:30;148075.06;;;0.89;90.80
40920;BME280;26652;50.280;19.026;2023-12-07T07:45:31;148031.03;;;0.71;92.27
40920;BME280;26652;50.280;19.026;2023-12-07T07:47:31;148090.97;;;0.95;91.65
40920;BME280;26652;50.280;19.026;2023-12-07T07:49:32;148143.56;;;1.17;90.05
40920;BME280;26652;50.280;19.026;2023-12-07T07:51:33;148160.69;;;1.24;89.30
40920;BME280;26652;50.280;19.026;2023-12-07T07:53:34;148155.78;;;1.22;88.18
40920;BME280;26652;50.280;19.026;2023-12-07T07:55:34;148160.69;;;1.24;88.88
40920;BME280;26652;50.280;19.026;2023-12-07T07:57:35;148132.53;;;1.13;87.83
40920;BME280;26652;50.280;19.026;2023-12-07T07:59:35;148159.47;;;1.24;89.39
40920;BME280;26652;50.280;19.026;2023-12-07T08:01:36;148182.72;;;1.34;88.15
40920;BME280;26652;50.280;19.026;2023-12-07T08:03:37;148160.69;;;1.24;87.29
40920;BME280;26652;50.280;19.026;2023-12-07T08:05:37;148174.16;;;1.30;87.25
40920;BME280;26652;50.280;19.026;2023-12-07T08:07:41;148168.03;;;1.27;86.68
40920;BME280;26652;50.280;19.026;2023-12-07T08:09:42;148190.06;;;1.37;86.97
40920;BME280;26652;50.280;19.026;2023-12-07T08:11:43;148199.84;;;1.41;86.63
40920;BME280;26652;50.280;19.026;2023-12-07T08:13:43;148230.47;;;1.53;85.43
40920;BME280;26652;50.280;19.026;2023-12-07T08:15:44;148236.59;;;1.56;85.40
40920;BME280;26652;50.280;19.026;2023-12-07T08:17:45;148283.13;;;1.75;85.10
40920;BME280;26652;50.280;19.026;2023-12-07T08:19:45;148259.84;;;1.66;85.04
40920;BME280;26652;50.280;19.026;2023-12-07T08:21:46;148295.38;;;1.80;84.81
40920;BME280;26652;50.280;19.026;2023-12-07T08:23:47;148278.22;;;1.73;84.21
40920;BME280;26652;50.280;19.026;2023-12-07T08:25:47;148275.78;;;1.72;85.05
40920;BME280;26652;50.280;19.026;2023-12-07T08:27:48;148270.88;;;1.70;84.94
40920;BME280;26652;50.280;19.026;2023-12-07T08:29:49;148284.34;;;1.76;85.21
40920;BME280;26652;50.280;19.026;2023-12-07T08:31:49;148230.47;;;1.53;85.61
40920;BME280;26652;50.280;19.026;2023-12-07T08:33:51;148230.47;;;1.53;86.63
40920;BME280;26652;50.280;19.026;2023-12-07T08:35:51;148247.59;;;1.60;86.18
40920;BME280;26652;50.280;19.026;2023-12-07T08:37:55;148290.47;;;1.78;84.56
40920;BME280;26652;50.280;19.026;2023-12-07T08:39:56;148278.22;;;1.73;84.81
40920;BME280;26652;50.280;19.026;2023-12-07T08:41:57;148289.25;;;1.78;84.42
40920;BME280;26652;50.280;19.026;2023-12-07T08:43:57;148312.50;;;1.87;84.23
40920;BME280;26652;50.280;19.026;2023-12-07T08:45:58;148330.88;;;1.95;83.58
40920;BME280;26652;50.280;19.026;2023-12-07T08:47:58;148333.31;;;1.96;83.80
40920;BME280;26652;50.280;19.026;2023-12-07T08:49:59;148368.78;;;2.11;83.24
40920;BME280;26652;50.280;19.026;2023-12-07T08:52:00;148345.56;;;2.01;83.22
40920;BME280;26652;50.280;19.026;2023-12-07T08:54:01;148354.16;;;2.05;83.17
40920;BME280;26652;50.280;19.026;2023-12-07T08:56:02;148345.56;;;2.01;83.15
40920;BME280;26652;50.280;19.026;2023-12-07T08:58:03;148330.88;;;1.95;83.08
40920;BME280;26652;50.280;19.026;2023-12-07T09:00:07;148324.75;;;1.92;84.62
40920;BME280;26652;50.280;19.026;2023-12-07T09:02:08;148297.81;;;1.81;84.36
40920;BME280;26652;50.280;19.026;2023-12-07T09:04:08;148341.91;;;2.00;85.06
40920;BME280;26652;50.280;19.026;2023-12-07T09:06:09;148343.13;;;2.00;84.41
40920;BME280;26652;50.280;19.026;2023-12-07T09:08:10;148362.69;;;2.08;83.56
40920;BME280;26652;50.280;19.026;2023-12-07T09:10:11;148406.75;;;2.26;82.76
40920;BME280;26652;50.280;19.026;2023-12-07T09:12:11;148389.63;;;2.19;82.75
40920;BME280;26652;50.280;19.026;2023-12-07T09:14:12;148318.63;;;1.90;83.03
40920;BME280;26652;50.280;19.026;2023-12-07T09:16:13;148323.53;;;1.92;84.41
40920;BME280;26652;50.280;19.026;2023-12-07T09:18:14;148324.75;;;1.92;84.77
40920;BME280;26652;50.280;19.026;2023-12-07T09:20:14;148277.00;;;1.73;85.61
40920;BME280;26652;50.280;19.026;2023-12-07T09:22:15;148294.13;;;1.80;85.32
40920;BME280;26652;50.280;19.026;2023-12-07T09:24:16;148290.47;;;1.78;84.95
40920;BME280;26652;50.280;19.026;2023-12-07T09:26:17;148300.25;;;1.82;85.39
40920;BME280;26652;50.280;19.026;2023-12-07T09:28:17;148273.31;;;1.71;86.64
40920;BME280;26652;50.280;19.026;2023-12-07T09:30:18;148278.22;;;1.73;86.71
40920;BME280;26652;50.280;19.026;2023-12-07T09:32:19;148262.28;;;1.67;86.97
40920;BME280;26652;50.280;19.026;2023-12-07T09:34:20;148261.06;;;1.66;86.93
40920;BME280;26652;50.280;19.026;2023-12-07T09:36:20;148268.41;;;1.69;87.54
40920;BME280;26652;50.280;19.026;2023-12-07T09:38:24;148253.72;;;1.63;87.14
40920;BME280;26652;50.280;19.026;2023-12-07T09:40:25;148333.31;;;1.96;85.89
40920;BME280;26652;50.280;19.026;2023-12-07T09:42:26;148292.91;;;1.79;84.99
40920;BME280;26652;50.280;19.026;2023-12-07T09:44:27;148310.06;;;1.86;85.20
40920;BME280;26652;50.280;19.026;2023-12-07T09:46:29;148308.81;;;1.86;85.88
40920;BME280;26652;50.280;19.026;2023-12-07T09:48:30;148318.63;;;1.90;85.41
40920;BME280;26652;50.280;19.026;2023-12-07T09:50:31;148330.88;;;1.95;86.79
40920;BME280;26652;50.280;19.026;2023-12-07T09:52:32;148340.66;;;1.99;86.10
40920;BME280;26652;50.280;19.026;2023-12-07T09:54:33;148378.59;;;2.15;85.25
40920;BME280;26652;50.280;19.026;2023-12-07T09:56:35;148372.47;;;2.12;83.84
40920;BME280;26652;50.280;19.026;2023-12-07T09:58:36;148394.53;;;2.21;84.26
40920;BME280;26652;50.280;19.026;2023-12-07T10:00:36;148348.03;;;2.02;85.53
40920;BME280;26652;50.280;19.026;2023-12-07T10:02:37;148321.06;;;1.91;85.65
40920;BME280;26652;50.280;19.026;2023-12-07T10:04:39;148343.13;;;2.00;85.54
40920;BME280;26652;50.280;19.026;2023-12-07T10:06:43;148411.66;;;2.28;85.89
40920;BME280;26652;50.280;19.026;2023-12-07T10:08:45;148401.88;;;2.24;84.29
40920;BME280;26652;50.280;19.026;2023-12-07T10:11:01;148398.19;;;2.23;85.31
40920;BME280;26652;50.280;19.026;2023-12-07T10:13:02;148476.59;;;2.55;84.51
40920;BME280;26652;50.280;19.026;2023-12-07T10:15:16;148496.22;;;2.63;82.73
40920;BME280;26652;50.280;19.026;2023-12-07T10:17:17;148498.66;;;2.65;82.26
40920;BME280;26652;50.280;19.026;2023-12-07T10:19:17;148398.19;;;2.23;83.26
40920;BME280;26652;50.280;19.026;2023-12-07T10:21:33;148423.91;;;2.34;83.92
40920;BME280;26652;50.280;19.026;2023-12-07T10:23:36;148474.16;;;2.54;84.26
40920;BME280;26652;50.280;19.026;2023-12-07T10:25:41;148501.09;;;2.66;83.12
40920;BME280;26652;50.280;19.026;2023-12-07T10:27:42;148514.59;;;2.71;82.79
40920;BME280;26652;50.280;19.026;2023-12-07T10:29:44;148529.28;;;2.77;81.59
40920;BME280;26652;50.280;19.026;2023-12-07T10:31:45;148520.72;;;2.74;80.97
40920;BME280;26652;50.280;19.026;2023-12-07T10:33:48;148504.78;;;2.67;80.95